Sandborn, Indiana
Current Conditions -  °F | °C
As of 12:35 PM on Monday 22 Dec 2014 (Local Time) from KDCY Reporting Station
Overcast Overcast  
Wind Chill: 43°   Ceiling: 1600
Heat Index: 47°   Visibility: 10mi
Dew Point: 41°   Wind: 9mph
Humidity: 79%   Direction: 130°SE
Pressure: 29.77"   Gusts: NA
Location:  38.9°N, 87.19°W
Report Text: KDCY 221835Z AUTO 13008KT 10SM BKN016 BKN024 OVC029 09/05 A2977 RMK AO2 T00850051
Loading
Personal Weather Stations






























Interactive Weather Map New forecast layout! Learn more

10-Day Weather Forecast

Advertisements
Track Severe Weather on mobile